Flight Track Log - Related Links

Times and Time Zones

All times are in EDT time to prevent confusion due to time zone crossing. See the KAP550 flight status page for this flight to view local times or setup timezone preferences in your user account.

Time Position Orientation Groundspeed Altitude Reporting Facility
EDT Latitude Longitude Course Direction KTS MPH feet Rate Location/Type
Tue 07:20:19 AM 44.5767 -74.6958 160° South 151 174 5,600  Level Boston Center
Tue 07:21:19 AM 44.5253 -74.6675 159° South 177 204 5,600  Level Boston Center
Tue 07:22:19 AM 44.4756 -74.6453 162° South 185 213 5,600  Level Boston Center
Tue 07:23:19 AM 44.4261 -74.6172 158° South 185 213 5,600  Level Boston Center
Tue 07:24:19 AM 44.3744 -74.5953 163° South 185 213 5,600  Level Boston Center
Tue 07:25:00 AM 44.7018 -74.7259 160° South  Level FlightAware Approximate
Tue 07:25:19 AM 44.3250 -74.5703 160° South 185 213 5,600  Level Boston Center
Tue 07:26:19 AM 44.2775 -74.5453 159° South 185 213 5,600  Level Boston Center
Tue 07:27:19 AM 44.2322 -74.5206 159° South 185 213 5,600  Level Boston Center
Tue 07:28:19 AM 44.1867 -74.5014 163° South 180 207 5,600  Level Boston Center
Tue 07:29:19 AM 44.1433 -74.4797 160° South 180 207 5,600  Level Boston Center
Tue 07:30:19 AM 44.0956 -74.4578 162° South 180 207 5,600  Level Boston Center
Tue 07:31:19 AM 44.0522 -74.4361 160° South 175 201 5,600  Level Boston Center
Tue 07:32:19 AM 44.0089 -74.4144 160° South 175 201 5,600  Level Boston Center
Tue 07:33:19 AM 43.9633 -74.3928 161° South 175 201 5,600  Level Boston Center
Tue 07:34:19 AM 43.9181 -74.3683 159° South 175 201 5,600  Level Boston Center
Tue 07:35:19 AM 43.8808 -74.3497 160° South 175 201 5,600  Level Boston Center
Tue 07:36:19 AM 43.8292 -74.3250 161° South 170 196 5,600  Level Boston Center
Tue 07:37:19 AM 43.7836 -74.3036 161° South 170 196 5,600  Level Boston Center
Tue 07:38:19 AM 43.7381 -74.2792 159° South 165 190 5,600  Level Boston Center
Tue 07:39:19 AM 43.6967 -74.2608 162° South 165 190 5,600  Level Boston Center
Tue 07:40:19 AM 43.6492 -74.2364 160° South 165 190 5,600  Level Boston Center
Tue 07:41:19 AM 43.6036 -74.2178 164° South 165 190 5,600  Level Boston Center
Tue 07:42:31 AM 43.5603 -74.1936 158° South 165 190 5,600  Level Boston Center
Tue 07:43:31 AM 43.5044 -74.1661 160° South 165 190 5,600  Level Boston Center
Tue 07:44:31 AM 43.4589 -74.1450 161° South 165 190 5,600  Level Boston Center
Tue 07:45:06 AM 43.4342 -74.1356 164° South 173 199 5,600  Level Boston Center
Tue 07:45:36 AM 43.4092 -74.1233 160° South 173 199 5,600  Level Boston Center
Tue 07:46:37 AM 43.3658 -74.1050 163° South 172 198 5,600  Level Boston Center
Tue 07:47:31 AM 43.3286 -74.0842 158° South 165 190 5,600 -53 Level Boston Center
Tue 07:48:31 AM 43.2789 -74.0572 158° South 165 190 5,500  Descending Boston Center
Tue 07:49:31 AM 43.2394 -74.0389 161° South 165 190 5,600 50 Climbing Boston Center
Tue 07:50:31 AM 43.1919 -74.0150 160° South 165 190 5,600  Level Boston Center
Tue 07:51:31 AM 43.1506 -73.9939 160° South 165 190 5,600  Level Boston Center
Tue 07:52:31 AM 43.1008 -73.9700 161° South 165 190 5,600 -250 Level Boston Center
Tue 07:53:31 AM 43.0572 -73.9547 166° South 172 198 5,100 -650 Descending Boston Center
Tue 07:54:31 AM 43.0033 -73.9278 160° South 188 216 4,300 -700 Descending Boston Center
Tue 07:55:31 AM 42.9642 -73.8928 147° Southeast 193 222 3,700 -623 Descending Boston Center
Tue 07:55:48 AM 42.9497 -73.8839 156° South 188 216 3,500 -700 Descending Boston Center
Tue 07:56:31 AM 42.9147 -73.8547 149° Southeast 193 222 3,000 -689 Descending Boston Center
Tue 07:56:49 AM 42.9022 -73.8458 152° Southeast 187 215 2,800 -600 Descending Boston Center
Tue 07:57:31 AM 42.8714 -73.8253 154° Southeast 188 216 2,400 -590 Descending Boston Center
Tue 07:57:50 AM 42.8528 -73.8164 161° South 186 214 2,200 -750 Descending Boston Center
Tue 07:58:51 AM 42.8069 -73.8097 174° South 157 181 1,400 1,752 Descending Boston Center
Tue 07:59:43 AM 42.7658 -73.7581 137° Southeast 188 216 5,500 4,731 Climbing Boston Center
Tue 08:01:00 AM 42.7491 -73.8020 170° South  Level Estimated
Tue 08:08:00 AM 42.7491 -73.8020 170° South  Level Estimated
Tue 08:09:00 AM 42.7491 -73.8020 170° South  Level Estimated
Tue 08:10:00 AM 42.7491 -73.8020 170° South  Level Estimated
Tue 08:11:00 AM 42.7491 -73.8020 170° South  Level Estimated

Login

Don't have an account? Register now (free) for customized features, flight alerts, and more!